Wrangell, Alaska
Current Conditions -  °F | °C
As of 8:16 PM on Monday 20 Oct 2014 (Local Time) from PAWG Reporting Station
Broken Clouds Broken Clouds  
Wind Chill: 44°   Ceiling: 5500
Heat Index: 46°   Visibility: 10mi
Dew Point: 43°   Wind: 5mph
Humidity: 87%   Direction: 160°SSE
Pressure: 29.45"   Gusts: NA
Location:  56.47°N, 132.38°W
Report Text: PAWG 210416Z 16004KT 10SM FEW005 SCT030 BKN055 08/06 A2945 RMK AO1 WEA: NONE (MCQ)
Loading
Personal Weather Stations






























Interactive Weather Map
Tropical Storm Tracking
New forecast layout! Learn more

10-Day Weather Forecast

Advertisements
Track Severe Weather on mobile